Погода Пронцевкана 2 недели

Могилёвская область, Белоруссия

23 мая-04 июня
  • 23мая
    Сегодня
    +10°
    +23°
    Практически безоблачно
    ВремяПогодаТемператураВлажностьДавлениеВетер, м/сВероятность осадков
    00:00Небольшая облачность+16°C91 %750 мм2.2 м/с2 %
    03:00Ясно и безоблачно+14°C94 %750 мм2.0 м/с2 %
    06:00Ясно и безоблачно+13°C93 %751 мм2.2 м/с2 %
    09:00Ясно и безоблачно+18°C73 %752 мм3.5 м/с2 %
    12:00Практически безоблачно+21°C56 %752 мм4.3 м/с2 %
    15:00Практически безоблачно+23°C51 %752 мм5.1 м/с5 %
    18:00Практически безоблачно+23°C50 %752 мм4.1 м/с8 %
    21:00Ясно и безоблачно+19°C53 %753 мм3.4 м/с2 %
  • 24мая
    Пятница
    +9°
    +22°
    Ясно и безоблачно
    ВремяПогодаТемператураВлажностьДавлениеВетер, м/сВероятность осадков
    00:00Ясно и безоблачно+15°C54 %754 мм2.9 м/с2 %
    03:00Ясно и безоблачно+12°C61 %755 мм2.7 м/с2 %
    06:00Ясно и безоблачно+11°C63 %756 мм2.4 м/с2 %
    09:00Ясно и безоблачно+15°C55 %756 мм3.9 м/с2 %
    12:00Ясно и безоблачно+19°C46 %756 мм4.0 м/с2 %
    15:00Ясно и безоблачно+21°C41 %756 мм4.8 м/с2 %
    18:00Ясно и безоблачно+21°C42 %755 мм3.8 м/с2 %
    21:00Ясно и безоблачно+17°C57 %755 мм2.8 м/с2 %
  • 25мая
    Суббота
    +10°
    +23°
    Ясно и безоблачно
    ВремяПогодаТемператураВлажностьДавлениеВетер, м/сВероятность осадков
    00:00Ясно и безоблачно+13°C63 %756 мм2.4 м/с2 %
    03:00Ясно и безоблачно+11°C69 %755 мм2.1 м/с2 %
    06:00Ясно и безоблачно+10°C70 %755 мм1.8 м/с2 %
    09:00Ясно и безоблачно+16°C56 %755 мм3.1 м/с2 %
    12:00Ясно и безоблачно+20°C47 %755 мм3.2 м/с2 %
    15:00Ясно и безоблачно+23°C40 %754 мм4.1 м/с2 %
    18:00Ясно и безоблачно+23°C42 %753 мм3.0 м/с6 %
    21:00Ясно и безоблачно+18°C61 %753 мм2.4 м/с2 %
  • 26мая
    Воскресенье
    +10°
    +24°
    Небольшая облачность
    ВремяПогодаТемператураВлажностьДавлениеВетер, м/сВероятность осадков
    00:00Ясно и безоблачно+14°C70 %753 мм1.9 м/с2 %
    03:00Ясно и безоблачно+10°C76 %752 мм1.4 м/с2 %
    06:00Ясно и безоблачно+10°C78 %752 мм0.8 м/с2 %
    09:00Ясно и безоблачно+18°C59 %753 мм1.7 м/с2 %
    12:00Облачно с прояснениями+21°C39 %753 мм2.1 м/с2 %
    15:00Небольшая облачность+23°C39 %752 мм2.6 м/с3 %
    18:00Ясно и безоблачно+24°C40 %752 мм2.1 м/с3 %
    21:00Ясно и безоблачно+19°C64 %752 мм1.6 м/с3 %
Мы используем cookies
Соглашаюсь